sensor_id;sensor_type;location;lat;lon;timestamp;pressure;altitude;pressure_sealevel;temperature;humidity
7433;BME280;32233;49.500;7.764;2023-12-28T00:01:46;98459.25;;;3.19;100.00
7433;BME280;32233;49.500;7.764;2023-12-28T00:04:12;98460.41;;;2.98;100.00
7433;BME280;32233;49.500;7.764;2023-12-28T00:06:39;98466.91;;;2.94;100.00
7433;BME280;32233;49.500;7.764;2023-12-28T00:09:07;98474.38;;;2.89;100.00
7433;BME280;32233;49.500;7.764;2023-12-28T00:11:38;98475.09;;;3.00;100.00
7433;BME280;32233;49.500;7.764;2023-12-28T00:14:04;98476.44;;;3.04;100.00
7433;BME280;32233;49.500;7.764;2023-12-28T00:16:31;98486.06;;;3.03;100.00
7433;BME280;32233;49.500;7.764;2023-12-28T00:19:04;98477.56;;;3.01;100.00
7433;BME280;32233;49.500;7.764;2023-12-28T00:21:31;98477.50;;;2.93;100.00
7433;BME280;32233;49.500;7.764;2023-12-28T00:23:58;98474.75;;;3.20;100.00
7433;BME280;32233;49.500;7.764;2023-12-28T00:26:24;98469.03;;;3.85;100.00
7433;BME280;32233;49.500;7.764;2023-12-28T00:29:01;98460.69;;;3.82;100.00
7433;BME280;32233;49.500;7.764;2023-12-28T00:31:27;98450.81;;;4.18;100.00
7433;BME280;32233;49.500;7.764;2023-12-28T00:33:54;98455.81;;;3.95;100.00
7433;BME280;32233;49.500;7.764;2023-12-28T00:36:22;98447.75;;;4.47;100.00
7433;BME280;32233;49.500;7.764;2023-12-28T00:38:49;98450.72;;;4.60;100.00
7433;BME280;32233;49.500;7.764;2023-12-28T00:41:16;98454.97;;;4.45;100.00
7433;BME280;32233;49.500;7.764;2023-12-28T00:43:42;98463.13;;;4.34;100.00
7433;BME280;32233;49.500;7.764;2023-12-28T00:46:09;98455.09;;;4.35;100.00
7433;BME280;32233;49.500;7.764;2023-12-28T00:48:36;98453.50;;;5.00;100.00
7433;BME280;32233;49.500;7.764;2023-12-28T00:51:03;98447.41;;;5.15;100.00
7433;BME280;32233;49.500;7.764;2023-12-28T00:53:29;98447.56;;;5.14;100.00
7433;BME280;32233;49.500;7.764;2023-12-28T00:55:56;98440.63;;;5.37;100.00
7433;BME280;32233;49.500;7.764;2023-12-28T00:58:22;98441.63;;;5.36;100.00
7433;BME280;32233;49.500;7.764;2023-12-28T01:00:49;98438.94;;;5.61;100.00
7433;BME280;32233;49.500;7.764;2023-12-28T01:03:19;98439.44;;;5.95;100.00
7433;BME280;32233;49.500;7.764;2023-12-28T01:05:46;98433.19;;;6.05;100.00
7433;BME280;32233;49.500;7.764;2023-12-28T01:08:17;98437.88;;;6.17;100.00
7433;BME280;32233;49.500;7.764;2023-12-28T01:10:44;98449.28;;;6.02;100.00
7433;BME280;32233;49.500;7.764;2023-12-28T01:13:10;98443.06;;;6.26;100.00
7433;BME280;32233;49.500;7.764;2023-12-28T01:15:37;98451.16;;;6.16;100.00
7433;BME280;32233;49.500;7.764;2023-12-28T01:18:04;98450.22;;;6.09;100.00
7433;BME280;32233;49.500;7.764;2023-12-28T01:20:31;98452.66;;;6.10;100.00
7433;BME280;32233;49.500;7.764;2023-12-28T01:22:57;98465.75;;;6.18;100.00
7433;BME280;32233;49.500;7.764;2023-12-28T01:25:24;98459.69;;;6.18;100.00
7433;BME280;32233;49.500;7.764;2023-12-28T01:27:50;98452.38;;;6.05;100.00
7433;BME280;32233;49.500;7.764;2023-12-28T01:30:17;98472.63;;;5.80;100.00
7433;BME280;32233;49.500;7.764;2023-12-28T01:32:44;98486.38;;;5.82;100.00
7433;BME280;32233;49.500;7.764;2023-12-28T01:35:10;98496.06;;;5.82;100.00
7433;BME280;32233;49.500;7.764;2023-12-28T01:37:38;98498.34;;;5.85;100.00
7433;BME280;32233;49.500;7.764;2023-12-28T01:40:05;98499.13;;;6.02;100.00
7433;BME280;32233;49.500;7.764;2023-12-28T01:42:33;98501.81;;;6.25;100.00
7433;BME280;32233;49.500;7.764;2023-12-28T01:44:59;98506.41;;;6.23;100.00
7433;BME280;32233;49.500;7.764;2023-12-28T01:47:26;98507.47;;;6.36;100.00
7433;BME280;32233;49.500;7.764;2023-12-28T01:49:54;98522.06;;;6.39;100.00
7433;BME280;32233;49.500;7.764;2023-12-28T01:52:22;98528.38;;;6.30;100.00
7433;BME280;32233;49.500;7.764;2023-12-28T01:54:50;98531.84;;;6.22;100.00
7433;BME280;32233;49.500;7.764;2023-12-28T01:57:17;98527.78;;;6.11;100.00
7433;BME280;32233;49.500;7.764;2023-12-28T01:59:44;98545.03;;;6.06;100.00
7433;BME280;32233;49.500;7.764;2023-12-28T02:02:12;98548.84;;;5.95;100.00
7433;BME280;32233;49.500;7.764;2023-12-28T02:04:39;98549.31;;;5.90;100.00
7433;BME280;32233;49.500;7.764;2023-12-28T02:07:06;98561.66;;;5.74;100.00
7433;BME280;32233;49.500;7.764;2023-12-28T02:09:34;98549.06;;;5.69;100.00
7433;BME280;32233;49.500;7.764;2023-12-28T02:12:00;98552.19;;;5.64;100.00
7433;BME280;32233;49.500;7.764;2023-12-28T02:14:27;98548.25;;;5.68;100.00
7433;BME280;32233;49.500;7.764;2023-12-28T02:17:22;98530.81;;;5.84;100.00
7433;BME280;32233;49.500;7.764;2023-12-28T02:19:51;98529.34;;;5.81;100.00
7433;BME280;32233;49.500;7.764;2023-12-28T02:22:21;98541.31;;;5.84;100.00
7433;BME280;32233;49.500;7.764;2023-12-28T02:25:08;98544.06;;;5.90;100.00
7433;BME280;32233;49.500;7.764;2023-12-28T02:27:38;98542.47;;;5.81;100.00
7433;BME280;32233;49.500;7.764;2023-12-28T02:30:08;98542.50;;;5.73;100.00
7433;BME280;32233;49.500;7.764;2023-12-28T02:32:44;98553.66;;;5.59;100.00
7433;BME280;32233;49.500;7.764;2023-12-28T02:35:32;98551.53;;;5.54;100.00
7433;BME280;32233;49.500;7.764;2023-12-28T02:38:09;98540.22;;;5.54;100.00
7433;BME280;32233;49.500;7.764;2023-12-28T02:40:38;98536.97;;;5.52;100.00
7433;BME280;32233;49.500;7.764;2023-12-28T02:43:06;98527.00;;;5.39;100.00
7433;BME280;32233;49.500;7.764;2023-12-28T02:45:33;98528.94;;;5.37;100.00
7433;BME280;32233;49.500;7.764;2023-12-28T02:48:01;98537.63;;;5.37;100.00
7433;BME280;32233;49.500;7.764;2023-12-28T02:50:28;98531.91;;;5.34;100.00
7433;BME280;32233;49.500;7.764;2023-12-28T02:52:58;98531.56;;;5.37;100.00
7433;BME280;32233;49.500;7.764;2023-12-28T02:55:25;98520.75;;;5.40;100.00
7433;BME280;32233;49.500;7.764;2023-12-28T02:57:55;98530.75;;;5.36;100.00
7433;BME280;32233;49.500;7.764;2023-12-28T03:00:22;98518.97;;;5.32;100.00
7433;BME280;32233;49.500;7.764;2023-12-28T03:02:49;98521.91;;;5.37;100.00
7433;BME280;32233;49.500;7.764;2023-12-28T03:05:16;98517.66;;;5.28;100.00
7433;BME280;32233;49.500;7.764;2023-12-28T03:07:44;98509.47;;;5.31;100.00
7433;BME280;32233;49.500;7.764;2023-12-28T03:10:11;98506.84;;;5.31;100.00
7433;BME280;32233;49.500;7.764;2023-12-28T03:12:40;98494.72;;;5.30;100.00
7433;BME280;32233;49.500;7.764;2023-12-28T03:15:07;98507.19;;;5.28;100.00
7433;BME280;32233;49.500;7.764;2023-12-28T03:17:34;98491.63;;;5.27;100.00
7433;BME280;32233;49.500;7.764;2023-12-28T03:20:03;98484.25;;;5.22;100.00
7433;BME280;32233;49.500;7.764;2023-12-28T03:22:30;98486.72;;;5.24;100.00
7433;BME280;32233;49.500;7.764;2023-12-28T03:24:57;98480.81;;;5.21;100.00
7433;BME280;32233;49.500;7.764;2023-12-28T03:27:23;98482.47;;;5.22;100.00
7433;BME280;32233;49.500;7.764;2023-12-28T03:29:50;98487.53;;;5.24;100.00
7433;BME280;32233;49.500;7.764;2023-12-28T03:32:16;98485.91;;;5.23;100.00
7433;BME280;32233;49.500;7.764;2023-12-28T03:34:43;98485.41;;;5.28;100.00
7433;BME280;32233;49.500;7.764;2023-12-28T03:37:10;98484.59;;;5.27;100.00
7433;BME280;32233;49.500;7.764;2023-12-28T03:39:37;98485.41;;;5.28;100.00
7433;BME280;32233;49.500;7.764;2023-12-28T03:42:04;98480.47;;;5.25;100.00
7433;BME280;32233;49.500;7.764;2023-12-28T03:44:31;98472.13;;;5.29;100.00
7433;BME280;32233;49.500;7.764;2023-12-28T03:46:58;98478.53;;;5.27;100.00
7433;BME280;32233;49.500;7.764;2023-12-28T03:49:24;98467.69;;;5.30;100.00
7433;BME280;32233;49.500;7.764;2023-12-28T03:51:53;98454.25;;;5.33;100.00
7433;BME280;32233;49.500;7.764;2023-12-28T03:54:20;98463.75;;;5.34;100.00
7433;BME280;32233;49.500;7.764;2023-12-28T03:56:47;98470.78;;;5.33;100.00
7433;BME280;32233;49.500;7.764;2023-12-28T03:59:13;98472.28;;;5.36;100.00
7433;BME280;32233;49.500;7.764;2023-12-28T04:01:43;98457.38;;;5.28;100.00
7433;BME280;32233;49.500;7.764;2023-12-28T04:04:10;98479.31;;;5.35;100.00
7433;BME280;32233;49.500;7.764;2023-12-28T04:06:38;98469.66;;;5.36;100.00
7433;BME280;32233;49.500;7.764;2023-12-28T04:09:05;98466.22;;;5.35;100.00
7433;BME280;32233;49.500;7.764;2023-12-28T04:11:31;98465.41;;;5.35;100.00
7433;BME280;32233;49.500;7.764;2023-12-28T04:13:58;98458.66;;;5.40;100.00
7433;BME280;32233;49.500;7.764;2023-12-28T04:16:25;98471.09;;;5.46;100.00
7433;BME280;32233;49.500;7.764;2023-12-28T04:18:52;98482.41;;;5.47;100.00
7433;BME280;32233;49.500;7.764;2023-12-28T04:21:19;98482.22;;;5.49;100.00
7433;BME280;32233;49.500;7.764;2023-12-28T04:23:45;98490.91;;;5.49;100.00
7433;BME280;32233;49.500;7.764;2023-12-28T04:26:12;98479.63;;;5.49;100.00
7433;BME280;32233;49.500;7.764;2023-12-28T04:28:39;98480.75;;;5.46;100.00
7433;BME280;32233;49.500;7.764;2023-12-28T04:31:06;98467.50;;;5.47;100.00
7433;BME280;32233;49.500;7.764;2023-12-28T04:33:33;98469.13;;;5.49;100.00
7433;BME280;32233;49.500;7.764;2023-12-28T04:36:01;98473.03;;;5.53;100.00
7433;BME280;32233;49.500;7.764;2023-12-28T04:38:32;98473.22;;;5.51;100.00
7433;BME280;32233;49.500;7.764;2023-12-28T04:41:00;98478.94;;;5.55;100.00
7433;BME280;32233;49.500;7.764;2023-12-28T04:43:27;98476.97;;;5.57;100.00
7433;BME280;32233;49.500;7.764;2023-12-28T04:45:54;98460.09;;;5.59;100.00
7433;BME280;32233;49.500;7.764;2023-12-28T04:48:21;98463.34;;;5.61;100.00
7433;BME280;32233;49.500;7.764;2023-12-28T04:50:50;98463.84;;;5.65;100.00
7433;BME280;32233;49.500;7.764;2023-12-28T04:53:17;98451.50;;;5.74;100.00
7433;BME280;32233;49.500;7.764;2023-12-28T04:55:44;98461.19;;;5.73;100.00
7433;BME280;32233;49.500;7.764;2023-12-28T04:58:11;98460.38;;;5.72;100.00
7433;BME280;32233;49.500;7.764;2023-12-28T05:00:38;98471.81;;;5.80;100.00
7433;BME280;32233;49.500;7.764;2023-12-28T05:03:08;98470.50;;;5.84;100.00
7433;BME280;32233;49.500;7.764;2023-12-28T05:05:35;98481.63;;;5.86;100.00
7433;BME280;32233;49.500;7.764;2023-12-28T05:08:02;98483.59;;;5.92;100.00
7433;BME280;32233;49.500;7.764;2023-12-28T05:10:28;98486.06;;;5.93;100.00
7433;BME280;32233;49.500;7.764;2023-12-28T05:12:55;98494.72;;;5.94;100.00
7433;BME280;32233;49.500;7.764;2023-12-28T05:15:27;98502.09;;;5.99;100.00
7433;BME280;32233;49.500;7.764;2023-12-28T05:17:54;98508.81;;;6.01;100.00
7433;BME280;32233;49.500;7.764;2023-12-28T05:20:22;98504.06;;;6.05;100.00
7433;BME280;32233;49.500;7.764;2023-12-28T05:22:48;98502.38;;;6.04;100.00
7433;BME280;32233;49.500;7.764;2023-12-28T05:25:15;98502.25;;;6.05;100.00
7433;BME280;32233;49.500;7.764;2023-12-28T05:27:45;98501.72;;;6.10;100.00
7433;BME280;32233;49.500;7.764;2023-12-28T05:30:11;98491.56;;;6.07;100.00
7433;BME280;32233;49.500;7.764;2023-12-28T05:32:39;98508.94;;;6.08;100.00
7433;BME280;32233;49.500;7.764;2023-12-28T05:35:06;98503.19;;;6.12;100.00
7433;BME280;32233;49.500;7.764;2023-12-28T05:37:33;98504.53;;;6.08;100.00
7433;BME280;32233;49.500;7.764;2023-12-28T05:40:00;98504.81;;;6.13;100.00
7433;BME280;32233;49.500;7.764;2023-12-28T05:42:27;98509.41;;;6.11;100.00
7433;BME280;32233;49.500;7.764;2023-12-28T05:44:53;98509.41;;;6.11;100.00
7433;BME280;32233;49.500;7.764;2023-12-28T05:47:20;98523.19;;;6.13;100.00
7433;BME280;32233;49.500;7.764;2023-12-28T05:49:47;98525.97;;;6.12;100.00
7433;BME280;32233;49.500;7.764;2023-12-28T05:52:14;98534.69;;;6.12;100.00
7433;BME280;32233;49.500;7.764;2023-12-28T05:54:42;98525.31;;;6.18;100.00
7433;BME280;32233;49.500;7.764;2023-12-28T05:57:10;98523.69;;;6.17;100.00
7433;BME280;32233;49.500;7.764;2023-12-28T05:59:38;98526.44;;;6.15;100.00
7433;BME280;32233;49.500;7.764;2023-12-28T06:02:05;98521.88;;;6.17;100.00
7433;BME280;32233;49.500;7.764;2023-12-28T06:04:33;98526.94;;;6.19;100.00
7433;BME280;32233;49.500;7.764;2023-12-28T06:07:04;98534.00;;;6.18;100.00
7433;BME280;32233;49.500;7.764;2023-12-28T06:09:32;98534.66;;;6.20;100.00
7433;BME280;32233;49.500;7.764;2023-12-28T06:11:59;98533.66;;;6.22;100.00
7433;BME280;32233;49.500;7.764;2023-12-28T06:14:26;98544.78;;;6.24;100.00
7433;BME280;32233;49.500;7.764;2023-12-28T06:16:53;98549.88;;;6.25;100.00
7433;BME280;32233;49.500;7.764;2023-12-28T06:19:20;98544.78;;;6.24;100.00
7433;BME280;32233;49.500;7.764;2023-12-28T06:21:47;98555.47;;;6.22;100.00
7433;BME280;32233;49.500;7.764;2023-12-28T06:24:15;98543.16;;;6.23;100.00
7433;BME280;32233;49.500;7.764;2023-12-28T06:26:44;98548.88;;;6.26;100.00
7433;BME280;32233;49.500;7.764;2023-12-28T06:29:14;98533.47;;;6.23;100.00
7433;BME280;32233;49.500;7.764;2023-12-28T06:31:41;98537.72;;;6.24;100.00
7433;BME280;32233;49.500;7.764;2023-12-28T06:34:08;98531.16;;;6.28;100.00
7433;BME280;32233;49.500;7.764;2023-12-28T06:36:35;98537.69;;;6.32;100.00
7433;BME280;32233;49.500;7.764;2023-12-28T06:39:02;98535.91;;;6.33;100.00
7433;BME280;32233;49.500;7.764;2023-12-28T06:41:29;98535.53;;;6.36;100.00
7433;BME280;32233;49.500;7.764;2023-12-28T06:43:55;98544.22;;;6.36;100.00
7433;BME280;32233;49.500;7.764;2023-12-28T06:46:22;98544.41;;;6.35;100.00
7433;BME280;32233;49.500;7.764;2023-12-28T06:48:49;98551.09;;;6.45;100.00
7433;BME280;32233;49.500;7.764;2023-12-28T06:51:20;98548.81;;;6.42;100.00
7433;BME280;32233;49.500;7.764;2023-12-28T06:53:48;98559.78;;;6.46;100.00
7433;BME280;32233;49.500;7.764;2023-12-28T06:56:16;98563.88;;;6.49;100.00
7433;BME280;32233;49.500;7.764;2023-12-28T06:58:43;98566.97;;;6.52;100.00
7433;BME280;32233;49.500;7.764;2023-12-28T07:01:10;98577.00;;;6.49;100.00
7433;BME280;32233;49.500;7.764;2023-12-28T07:03:38;98572.06;;;6.54;100.00
7433;BME280;32233;49.500;7.764;2023-12-28T07:06:07;98583.19;;;6.56;100.00
7433;BME280;32233;49.500;7.764;2023-12-28T07:08:35;98583.38;;;6.54;100.00
7433;BME280;32233;49.500;7.764;2023-12-28T07:11:02;98586.16;;;6.53;100.00
7433;BME280;32233;49.500;7.764;2023-12-28T07:13:30;98586.34;;;6.51;100.00
7433;BME280;32233;49.500;7.764;2023-12-28T07:15:57;98601.44;;;6.57;100.00
7433;BME280;32233;49.500;7.764;2023-12-28T07:18:26;98605.41;;;6.53;100.00
7433;BME280;32233;49.500;7.764;2023-12-28T07:20:53;98593.22;;;6.52;100.00
7433;BME280;32233;49.500;7.764;2023-12-28T07:23:20;98601.44;;;6.57;100.00
7433;BME280;32233;49.500;7.764;2023-12-28T07:25:48;98601.91;;;6.53;100.00
7433;BME280;32233;49.500;7.764;2023-12-28T07:28:14;98607.84;;;6.55;100.00
7433;BME280;32233;49.500;7.764;2023-12-28T07:30:41;98612.44;;;6.53;100.00
7433;BME280;32233;49.500;7.764;2023-12-28T07:33:08;98615.53;;;6.56;100.00
7433;BME280;32233;49.500;7.764;2023-12-28T07:35:35;98609.16;;;6.51;100.00
7433;BME280;32233;49.500;7.764;2023-12-28T07:38:02;98619.16;;;6.55;100.00
7433;BME280;32233;49.500;7.764;2023-12-28T07:40:29;98615.53;;;6.56;100.00
7433;BME280;32233;49.500;7.764;2023-12-28T07:42:55;98612.09;;;6.56;100.00
7433;BME280;32233;49.500;7.764;2023-12-28T07:45:23;98617.34;;;6.56;100.00
7433;BME280;32233;49.500;7.764;2023-12-28T07:47:53;98615.41;;;6.50;100.00
7433;BME280;32233;49.500;7.764;2023-12-28T07:50:23;98621.16;;;6.53;100.00
7433;BME280;32233;49.500;7.764;2023-12-28T07:52:50;98623.41;;;6.56;100.00
7433;BME280;32233;49.500;7.764;2023-12-28T07:55:17;98628.03;;;6.54;100.00
7433;BME280;32233;49.500;7.764;2023-12-28T07:57:44;98628.50;;;6.58;100.00
7433;BME280;32233;49.500;7.764;2023-12-28T08:00:12;98635.22;;;6.60;100.00
7433;BME280;32233;49.500;7.764;2023-12-28T08:02:38;98629.16;;;6.60;100.00
7433;BME280;32233;49.500;7.764;2023-12-28T08:05:05;98621.94;;;6.62;100.00
7433;BME280;32233;49.500;7.764;2023-12-28T08:07:32;98629.31;;;6.58;100.00
7433;BME280;32233;49.500;7.764;2023-12-28T08:10:01;98634.59;;;6.58;100.00
7433;BME280;32233;49.500;7.764;2023-12-28T08:12:28;98633.75;;;6.58;100.00
7433;BME280;32233;49.500;7.764;2023-12-28T08:14:55;98629.97;;;6.60;100.00
7433;BME280;32233;49.500;7.764;2023-12-28T08:17:22;98641.47;;;6.59;100.00
7433;BME280;32233;49.500;7.764;2023-12-28T08:19:49;98635.88;;;6.62;100.00
7433;BME280;32233;49.500;7.764;2023-12-28T08:22:16;98634.88;;;6.63;100.00
7433;BME280;32233;49.500;7.764;2023-12-28T08:24:43;98629.81;;;6.62;100.00
7433;BME280;32233;49.500;7.764;2023-12-28T08:27:10;98635.69;;;6.64;100.00
7433;BME280;32233;49.500;7.764;2023-12-28T08:29:36;98625.84;;;6.66;100.00
7433;BME280;32233;49.500;7.764;2023-12-28T08:32:04;98633.38;;;6.69;100.00
7433;BME280;32233;49.500;7.764;2023-12-28T08:34:31;98636.66;;;6.71;100.00
7433;BME280;32233;49.500;7.764;2023-12-28T08:37:01;98640.94;;;6.64;100.00
7433;BME280;32233;49.500;7.764;2023-12-28T08:39:30;98638.31;;;6.64;100.00
7433;BME280;32233;49.500;7.764;2023-12-28T08:41:57;98629.91;;;6.68;100.00
7433;BME280;32233;49.500;7.764;2023-12-28T08:44:24;98641.44;;;6.67;100.00
7433;BME280;32233;49.500;7.764;2023-12-28T08:46:50;98643.25;;;6.67;100.00
7433;BME280;32233;49.500;7.764;2023-12-28T08:49:17;98636.00;;;6.69;100.00
7433;BME280;32233;49.500;7.764;2023-12-28T08:51:44;98642.91;;;6.70;100.00
7433;BME280;32233;49.500;7.764;2023-12-28T08:54:11;98648.97;;;6.70;100.00
7433;BME280;32233;49.500;7.764;2023-12-28T08:56:37;98651.91;;;6.76;100.00
7433;BME280;32233;49.500;7.764;2023-12-28T08:59:04;98644.19;;;6.74;100.00
7433;BME280;32233;49.500;7.764;2023-12-28T09:01:31;98646.16;;;6.72;100.00
7433;BME280;32233;49.500;7.764;2023-12-28T09:03:58;98650.78;;;6.70;100.00
7433;BME280;32233;49.500;7.764;2023-12-28T09:06:25;98649.09;;;6.77;100.00
7433;BME280;32233;49.500;7.764;2023-12-28T09:08:53;98653.38;;;6.78;100.00
7433;BME280;32233;49.500;7.764;2023-12-28T09:11:20;98668.13;;;6.79;100.00
7433;BME280;32233;49.500;7.764;2023-12-28T09:13:47;98659.59;;;6.77;100.00
7433;BME280;32233;49.500;7.764;2023-12-28T09:16:14;98664.50;;;6.80;100.00
7433;BME280;32233;49.500;7.764;2023-12-28T09:18:42;98673.22;;;6.81;100.00
7433;BME280;32233;49.500;7.764;2023-12-28T09:21:09;98664.19;;;6.83;100.00
7433;BME280;32233;49.500;7.764;2023-12-28T09:23:37;98660.41;;;6.86;100.00
7433;BME280;32233;49.500;7.764;2023-12-28T09:26:05;98664.66;;;6.87;100.00
7433;BME280;32233;49.500;7.764;2023-12-28T09:28:32;98665.47;;;6.87;100.00
7433;BME280;32233;49.500;7.764;2023-12-28T09:31:00;98661.84;;;6.88;100.00
7433;BME280;32233;49.500;7.764;2023-12-28T09:33:27;98671.84;;;6.93;100.00
7433;BME280;32233;49.500;7.764;2023-12-28T09:35:53;98663.44;;;6.98;100.00
7433;BME280;32233;49.500;7.764;2023-12-28T09:38:20;98669.59;;;7.13;100.00
7433;BME280;32233;49.500;7.764;2023-12-28T09:40:52;98668.72;;;7.20;100.00
7433;BME280;32233;49.500;7.764;2023-12-28T09:43:23;98663.59;;;7.27;100.00
7433;BME280;32233;49.500;7.764;2023-12-28T09:45:51;98664.84;;;7.39;100.00
7433;BME280;32233;49.500;7.764;2023-12-28T09:48:20;98671.53;;;7.42;100.00
7433;BME280;32233;49.500;7.764;2023-12-28T09:50:51;98672.06;;;7.37;100.00
7433;BME280;32233;49.500;7.764;2023-12-28T09:53:24;98675.94;;;7.27;100.00
7433;BME280;32233;49.500;7.764;2023-12-28T09:55:54;98678.59;;;7.41;100.00
7433;BME280;32233;49.500;7.764;2023-12-28T09:58:23;98686.34;;;7.43;100.00
7433;BME280;32233;49.500;7.764;2023-12-28T10:00:50;98678.44;;;7.43;100.00
7433;BME280;32233;49.500;7.764;2023-12-28T10:03:17;98684.22;;;7.38;100.00
7433;BME280;32233;49.500;7.764;2023-12-28T10:05:46;98678.13;;;7.38;100.00
7433;BME280;32233;49.500;7.764;2023-12-28T10:08:14;98673.94;;;7.29;100.00
7433;BME280;32233;49.500;7.764;2023-12-28T10:10:42;98685.97;;;7.23;100.00
7433;BME280;32233;49.500;7.764;2023-12-28T10:13:10;98673.94;;;7.29;100.00
7433;BME280;32233;49.500;7.764;2023-12-28T10:15:38;98679.38;;;7.27;100.00
7433;BME280;32233;49.500;7.764;2023-12-28T10:18:05;98673.94;;;7.29;100.00
7433;BME280;32233;49.500;7.764;2023-12-28T10:20:33;98685.16;;;7.23;100.00
7433;BME280;32233;49.500;7.764;2023-12-28T10:23:00;98671.66;;;7.26;100.00
7433;BME280;32233;49.500;7.764;2023-12-28T10:25:30;98672.47;;;7.26;100.00
7433;BME280;32233;49.500;7.764;2023-12-28T10:27:56;98672.88;;;7.38;100.00
7433;BME280;32233;49.500;7.764;2023-12-28T10:30:23;98673.13;;;7.28;100.00
7433;BME280;32233;49.500;7.764;2023-12-28T10:32:50;98679.84;;;7.31;100.00
7433;BME280;32233;49.500;7.764;2023-12-28T10:35:17;98664.06;;;7.31;100.00
7433;BME280;32233;49.500;7.764;2023-12-28T10:37:44;98661.88;;;7.34;100.00
7433;BME280;32233;49.500;7.764;2023-12-28T10:40:14;98665.72;;;7.32;100.00
7433;BME280;32233;49.500;7.764;2023-12-28T10:42:54;98656.81;;;7.33;100.00
7433;BME280;32233;49.500;7.764;2023-12-28T10:45:26;98645.19;;;7.27;100.00
7433;BME280;32233;49.500;7.764;2023-12-28T10:48:09;98655.06;;;7.25;100.00
7433;BME280;32233;49.500;7.764;2023-12-28T10:50:51;98654.44;;;7.23;100.00
7433;BME280;32233;49.500;7.764;2023-12-28T10:53:26;98648.22;;;7.16;100.00
7433;BME280;32233;49.500;7.764;2023-12-28T11:01:46;98638.06;;;7.36;100.00
7433;BME280;32233;49.500;7.764;2023-12-28T11:04:17;98633.38;;;7.46;100.00
7433;BME280;32233;49.500;7.764;2023-12-28T11:06:49;98635.78;;;7.56;100.00
7433;BME280;32233;49.500;7.764;2023-12-28T11:09:16;98626.88;;;7.57;100.00
7433;BME280;32233;49.500;7.764;2023-12-28T11:11:43;98623.44;;;7.56;100.00
7433;BME280;32233;49.500;7.764;2023-12-28T11:14:11;98631.31;;;7.56;100.00
7433;BME280;32233;49.500;7.764;2023-12-28T11:16:38;98626.22;;;7.55;100.00
7433;BME280;32233;49.500;7.764;2023-12-28T11:19:05;98628.34;;;7.59;100.00
7433;BME280;32233;49.500;7.764;2023-12-28T11:21:33;98619.19;;;7.55;100.00
7433;BME280;32233;49.500;7.764;2023-12-28T11:24:00;98614.41;;;7.51;100.00
7433;BME280;32233;49.500;7.764;2023-12-28T11:26:27;98621.56;;;7.42;100.00
7433;BME280;32233;49.500;7.764;2023-12-28T11:29:02;98611.31;;;7.32;100.00
7433;BME280;32233;49.500;7.764;2023-12-28T11:31:32;98612.78;;;7.35;100.00
7433;BME280;32233;49.500;7.764;2023-12-28T11:34:00;98606.72;;;7.26;100.00
7433;BME280;32233;49.500;7.764;2023-12-28T11:36:36;98596.13;;;7.19;100.00
7433;BME280;32233;49.500;7.764;2023-12-28T11:39:05;98594.13;;;7.22;100.00
7433;BME280;32233;49.500;7.764;2023-12-28T11:41:33;98593.97;;;7.23;100.00
7433;BME280;32233;49.500;7.764;2023-12-28T11:44:03;98585.00;;;7.09;100.00
7433;BME280;32233;49.500;7.764;2023-12-28T11:46:35;98585.19;;;7.08;100.00
7433;BME280;32233;49.500;7.764;2023-12-28T11:49:07;98589.28;;;7.10;100.00
7433;BME280;32233;49.500;7.764;2023-12-28T11:51:37;98577.84;;;7.03;100.00
7433;BME280;32233;49.500;7.764;2023-12-28T11:54:04;98564.22;;;7.00;100.00
7433;BME280;32233;49.500;7.764;2023-12-28T11:56:31;98579.13;;;7.07;100.00
7433;BME280;32233;49.500;7.764;2023-12-28T11:58:59;98579.34;;;6.98;100.00
7433;BME280;32233;49.500;7.764;2023-12-28T12:01:25;98568.53;;;6.92;100.00
7433;BME280;32233;49.500;7.764;2023-12-28T12:03:53;98570.53;;;6.90;100.00
7433;BME280;32233;49.500;7.764;2023-12-28T12:06:20;98556.41;;;6.91;100.00
7433;BME280;32233;49.500;7.764;2023-12-28T12:08:47;98559.50;;;6.95;100.00
7433;BME280;32233;49.500;7.764;2023-12-28T12:11:14;98553.25;;;6.96;100.00
7433;BME280;32233;49.500;7.764;2023-12-28T12:13:40;98543.66;;;7.03;100.00
7433;BME280;32233;49.500;7.764;2023-12-28T12:16:07;98536.19;;;6.92;100.00
7433;BME280;32233;49.500;7.764;2023-12-28T12:18:34;98537.34;;;6.89;100.00
7433;BME280;32233;49.500;7.764;2023-12-28T12:21:02;98541.16;;;6.87;100.00
7433;BME280;32233;49.500;7.764;2023-12-28T12:23:29;98546.34;;;6.95;100.00
7433;BME280;32233;49.500;7.764;2023-12-28T12:25:56;98550.38;;;6.83;100.00
7433;BME280;32233;49.500;7.764;2023-12-28T12:28:23;98552.59;;;6.94;100.00
7433;BME280;32233;49.500;7.764;2023-12-28T12:30:56;98537.53;;;6.88;100.00
7433;BME280;32233;49.500;7.764;2023-12-28T12:33:24;98538.75;;;6.77;100.00
7433;BME280;32233;49.500;7.764;2023-12-28T12:35:52;98531.84;;;6.76;100.00
7433;BME280;32233;49.500;7.764;2023-12-28T12:38:19;98518.50;;;6.86;100.00
7433;BME280;32233;49.500;7.764;2023-12-28T12:40:45;98511.31;;;6.80;100.00
7433;BME280;32233;49.500;7.764;2023-12-28T12:43:12;98510.31;;;6.81;100.00
7433;BME280;32233;49.500;7.764;2023-12-28T12:45:39;98510.72;;;6.92;100.00
7433;BME280;32233;49.500;7.764;2023-12-28T12:48:06;98508.63;;;6.88;100.00
7433;BME280;32233;49.500;7.764;2023-12-28T12:50:32;98505.38;;;6.86;100.00
7433;BME280;32233;49.500;7.764;2023-12-28T12:53:00;98506.66;;;6.90;100.00
7433;BME280;32233;49.500;7.764;2023-12-28T12:55:27;98501.28;;;6.83;100.00
7433;BME280;32233;49.500;7.764;2023-12-28T12:57:54;98496.03;;;6.83;100.00
7433;BME280;32233;49.500;7.764;2023-12-28T13:00:24;98497.19;;;6.81;100.00
7433;BME280;32233;49.500;7.764;2023-12-28T13:02:50;98494.41;;;6.82;100.00
7433;BME280;32233;49.500;7.764;2023-12-28T13:05:19;98498.66;;;6.83;100.00
7433;BME280;32233;49.500;7.764;2023-12-28T13:07:46;98500.63;;;6.81;100.00
7433;BME280;32233;49.500;7.764;2023-12-28T13:10:12;98492.38;;;6.84;100.00
7433;BME280;32233;49.500;7.764;2023-12-28T13:12:39;98493.75;;;6.80;100.00
7433;BME280;32233;49.500;7.764;2023-12-28T13:15:06;98489.00;;;6.76;100.00
7433;BME280;32233;49.500;7.764;2023-12-28T13:17:33;98483.88;;;6.82;100.00
7433;BME280;32233;49.500;7.764;2023-12-28T13:19:59;98485.69;;;6.82;100.00